Time;durP1;ratioP1;P1;durP2;ratioP2;P2;SDS_P1;SDS_P2;PMS_P1;PMS_P2;Temp;Humidity;BMP_temperature;BMP_pressure;BME280_temperature;BME280_humidity;BME280_pressure;Samples;Min_cycle;Max_cycle;Signal;HPM_P1;HPM_P2
2021/09/26 00:02:37;;;;;;;9.10;6.20;;;16.30;99.90;;;;;;12510529;28;20056;-36
2021/09/26 00:08:40;;;;;;;10.48;6.15;;;16.20;99.90;;;;;;12508715;28;20126;-35
2021/09/26 00:14:41;;;;;;;9.10;6.85;;;16.20;99.90;;;;;;12512009;28;20044;-39
2021/09/26 00:20:43;;;;;;;9.82;6.75;;;16.10;99.90;;;;;;12503567;28;20057;-40
2021/09/26 00:26:45;;;;;;;9.00;6.72;;;16.10;99.90;;;;;;12464676;28;20483;-35
2021/09/26 00:32:47;;;;;;;8.75;6.47;;;16.10;99.90;;;;;;12466140;28;20050;-36
2021/09/26 00:38:49;;;;;;;10.55;7.18;;;15.90;99.90;;;;;;12463302;28;20084;-40
2021/09/26 00:44:51;;;;;;;11.18;6.47;;;15.80;99.90;;;;;;12464256;28;20053;-41
2021/09/26 00:50:54;;;;;;;8.15;5.43;;;15.80;99.90;;;;;;12471517;28;20052;-37
2021/09/26 00:56:57;;;;;;;12.98;6.80;;;15.90;99.90;;;;;;12472369;28;20099;-36
2021/09/26 01:02:58;;;;;;;8.57;6.32;;;15.80;99.90;;;;;;12495735;28;20541;-36
2021/09/26 01:09:20;;;;;;;8.98;6.20;;;15.70;99.90;;;;;;12519571;28;20055;-36
2021/09/26 01:15:42;;;;;;;8.45;6.25;;;15.60;99.90;;;;;;12476497;28;20071;-35
2021/09/26 01:22:01;;;;;;;8.45;6.38;;;15.50;99.90;;;;;;12470728;28;20476;-35
2021/09/26 01:28:21;;;;;;;10.02;6.13;;;15.50;99.90;;;;;;12469938;28;20049;-40
2021/09/26 01:34:33;;;;;;;8.38;6.13;;;15.50;99.90;;;;;;12471142;28;20053;-40
2021/09/26 01:40:55;;;;;;;8.93;6.28;;;15.50;99.90;;;;;;12469463;28;20511;-35
2021/09/26 01:46:57;;;;;;;8.60;6.15;;;15.40;99.90;;;;;;12471245;28;20045;-40
2021/09/26 01:53:01;;;;;;;9.48;6.03;;;15.50;99.90;;;;;;12469425;28;20045;-36
2021/09/26 01:59:06;;;;;;;11.43;6.63;;;15.40;99.90;;;;;;12467757;28;20075;-36
2021/09/26 02:05:09;;;;;;;7.53;6.18;;;15.30;99.90;;;;;;12471463;28;20088;-35
2021/09/26 02:11:13;;;;;;;9.60;6.00;;;15.20;99.90;;;;;;12467694;28;20141;-39
2021/09/26 02:17:16;;;;;;;9.27;6.25;;;15.20;99.90;;;;;;12472738;28;20049;-39
2021/09/26 02:23:18;;;;;;;8.90;6.13;;;15.10;99.90;;;;;;12468860;28;20045;-37
2021/09/26 02:29:20;;;;;;;7.43;5.45;;;15.10;99.90;;;;;;12465281;28;20452;-41
2021/09/26 02:35:23;;;;;;;8.60;6.07;;;15.00;99.90;;;;;;12464571;28;20064;-40
2021/09/26 02:41:34;;;;;;;9.68;6.00;;;15.00;99.90;;;;;;12465993;28;20049;-35
2021/09/26 02:48:00;;;;;;;9.57;6.20;;;14.90;99.90;;;;;;12464694;28;20100;-40
2021/09/26 02:54:03;;;;;;;9.50;6.45;;;15.00;99.90;;;;;;12496582;28;20049;-35
2021/09/26 03:00:06;;;;;;;8.10;5.83;;;15.00;99.90;;;;;;12515179;28;20422;-36
2021/09/26 03:06:08;;;;;;;9.00;5.40;;;15.00;99.90;;;;;;12467239;28;20049;-35
2021/09/26 03:12:18;;;;;;;7.72;5.60;;;15.00;99.90;;;;;;12466263;28;20049;-35
2021/09/26 03:18:21;;;;;;;7.82;5.63;;;14.90;99.90;;;;;;12466791;28;20431;-35
2021/09/26 03:24:22;;;;;;;7.80;5.40;;;14.90;99.90;;;;;;12501456;28;20060;-40
2021/09/26 03:30:24;;;;;;;8.45;5.75;;;14.90;99.90;;;;;;12514808;28;20048;-42
2021/09/26 03:36:26;;;;;;;8.38;5.85;;;14.90;99.90;;;;;;12512149;28;20079;-35
2021/09/26 03:42:28;;;;;;;9.68;5.47;;;14.80;99.90;;;;;;12491150;28;20049;-40
2021/09/26 03:48:30;;;;;;;7.97;5.60;;;14.60;99.90;;;;;;12465676;28;20506;-35
2021/09/26 03:54:32;;;;;;;9.25;6.28;;;14.50;99.90;;;;;;12498010;28;20087;-36
2021/09/26 04:00:34;;;;;;;8.18;6.45;;;14.30;99.90;;;;;;12506263;28;20049;-39
2021/09/26 04:06:36;;;;;;;7.65;5.13;;;14.30;99.90;;;;;;12466577;28;20072;-36
2021/09/26 04:12:40;;;;;;;7.60;5.35;;;14.50;99.90;;;;;;12481167;28;20287;-35
2021/09/26 04:18:42;;;;;;;9.80;5.72;;;14.40;99.90;;;;;;12508762;28;20106;-39
2021/09/26 04:24:44;;;;;;;7.90;5.50;;;14.40;99.90;;;;;;12512510;28;20056;-39
2021/09/26 04:30:45;;;;;;;6.07;4.53;;;14.50;99.90;;;;;;12510299;28;20809;-41
2021/09/26 04:36:47;;;;;;;7.07;4.95;;;14.40;99.90;;;;;;12512094;28;20057;-35
2021/09/26 04:42:49;;;;;;;6.40;4.50;;;14.40;99.90;;;;;;12510770;28;20867;-39
2021/09/26 04:48:51;;;;;;;7.45;5.53;;;14.30;99.90;;;;;;12509787;28;20056;-35
2021/09/26 04:54:52;;;;;;;10.63;5.20;;;14.30;99.90;;;;;;12510958;28;20071;-35
2021/09/26 05:00:54;;;;;;;11.40;5.70;;;14.30;99.90;;;;;;12508737;28;20571;-40
2021/09/26 05:06:57;;;;;;;8.90;5.80;;;14.20;99.90;;;;;;12512345;28;20052;-40
2021/09/26 05:12:59;;;;;;;8.55;5.90;;;14.10;99.90;;;;;;12508517;28;20053;-36
2021/09/26 05:19:01;;;;;;;5.95;4.68;;;14.10;99.90;;;;;;12506701;28;20049;-40
2021/09/26 05:25:03;;;;;;;6.90;5.30;;;14.20;99.90;;;;;;12509090;28;20060;-39
2021/09/26 05:31:05;;;;;;;7.43;4.85;;;14.30;99.90;;;;;;12509608;28;20442;-35
2021/09/26 05:37:07;;;;;;;8.23;5.28;;;14.40;99.90;;;;;;12516998;28;20052;-40
2021/09/26 05:43:09;;;;;;;7.05;5.57;;;14.40;99.90;;;;;;12516322;28;20049;-40
2021/09/26 05:49:11;;;;;;;7.38;5.75;;;14.30;99.90;;;;;;12520855;28;20049;-36
2021/09/26 05:55:13;;;;;;;8.55;5.43;;;14.20;99.90;;;;;;12520502;28;20045;-40
2021/09/26 06:01:15;;;;;;;7.68;5.32;;;14.40;99.90;;;;;;12513881;28;20368;-40
2021/09/26 06:07:17;;;;;;;6.13;5.15;;;14.40;99.90;;;;;;12516924;28;20558;-40
2021/09/26 06:13:19;;;;;;;9.35;5.40;;;14.50;99.90;;;;;;12517075;28;20059;-40
2021/09/26 06:19:21;;;;;;;8.40;5.22;;;14.60;99.90;;;;;;12515695;28;21298;-41
2021/09/26 06:25:23;;;;;;;10.85;5.60;;;14.50;99.90;;;;;;12517194;28;20098;-39
2021/09/26 06:31:25;;;;;;;8.90;5.50;;;14.60;99.90;;;;;;12511894;28;20075;-36
2021/09/26 06:37:28;;;;;;;8.30;5.50;;;14.60;99.90;;;;;;12518274;28;20087;-40
2021/09/26 06:43:30;;;;;;;10.43;6.57;;;14.60;99.90;;;;;;12517359;28;20037;-39
2021/09/26 06:49:32;;;;;;;7.88;5.60;;;14.80;99.90;;;;;;12517620;28;20653;-41
2021/09/26 06:55:34;;;;;;;7.88;6.05;;;14.90;99.90;;;;;;12516971;28;20497;-35
2021/09/26 07:01:36;;;;;;;7.75;5.60;;;14.90;99.90;;;;;;12515893;28;20049;-38
2021/09/26 07:07:38;;;;;;;9.27;6.30;;;15.00;99.90;;;;;;12513713;28;20053;-36
2021/09/26 07:13:40;;;;;;;8.60;6.32;;;14.90;99.90;;;;;;12515458;28;20098;-39
2021/09/26 07:19:42;;;;;;;8.48;5.90;;;15.10;99.90;;;;;;12515762;28;20471;-36
2021/09/26 07:25:44;;;;;;;7.80;6.43;;;15.20;99.90;;;;;;12516727;28;20049;-40
2021/09/26 07:31:46;;;;;;;8.07;6.20;;;15.20;99.90;;;;;;12517801;28;20053;-35
2021/09/26 07:37:48;;;;;;;7.30;6.25;;;15.30;99.90;;;;;;12512702;28;20156;-39
2021/09/26 07:43:50;;;;;;;9.25;6.22;;;15.60;99.90;;;;;;12513865;28;20102;-36
2021/09/26 07:49:52;;;;;;;9.82;6.60;;;15.60;99.90;;;;;;12512357;28;20151;-36
2021/09/26 07:55:55;;;;;;;8.15;5.88;;;15.70;99.90;;;;;;12512019;28;20044;-36
2021/09/26 08:01:57;;;;;;;7.60;5.67;;;15.80;99.90;;;;;;12514953;28;20163;-37
2021/09/26 08:07:59;;;;;;;8.77;5.40;;;16.00;99.90;;;;;;12515818;28;20049;-37
2021/09/26 08:14:01;;;;;;;5.88;4.90;;;16.30;99.90;;;;;;12512844;28;20045;-40
2021/09/26 08:20:04;;;;;;;9.27;4.65;;;16.50;99.90;;;;;;12512000;28;20053;-40
2021/09/26 08:26:06;;;;;;;6.50;4.20;;;17.10;99.90;;;;;;12511707;28;20848;-41
2021/09/26 08:32:08;;;;;;;6.00;4.15;;;17.30;99.90;;;;;;12511343;28;20045;-36
2021/09/26 08:38:09;;;;;;;4.93;3.83;;;17.60;99.90;;;;;;12511966;28;20049;-36
2021/09/26 08:44:11;;;;;;;5.05;3.78;;;18.00;99.90;;;;;;12510373;28;20118;-41
2021/09/26 08:50:17;;;;;;;5.10;3.80;;;18.70;99.90;;;;;;12511350;28;20057;-39
2021/09/26 08:56:22;;;;;;;6.85;4.13;;;18.80;99.90;;;;;;12515890;28;20056;-36
2021/09/26 09:02:24;;;;;;;6.70;4.03;;;19.30;99.90;;;;;;12512688;28;20132;-35
2021/09/26 09:08:26;;;;;;;5.18;3.15;;;19.60;99.90;;;;;;12516027;28;20049;-41
2021/09/26 09:14:58;;;;;;;5.80;3.83;;;20.10;99.90;;;;;;12519951;28;20135;-40
2021/09/26 09:21:00;;;;;;;6.70;4.10;;;20.00;99.90;;;;;;12520284;28;20076;-35
2021/09/26 09:27:01;;;;;;;5.95;3.90;;;19.80;99.90;;;;;;12522042;28;20105;-36
2021/09/26 09:33:05;;;;;;;7.95;3.70;;;19.90;99.90;;;;;;12521754;28;20452;-35
2021/09/26 09:39:08;;;;;;;6.22;4.45;;;20.20;99.90;;;;;;12518784;28;20079;-36
2021/09/26 09:45:32;;;;;;;7.13;4.03;;;20.50;99.90;;;;;;12521673;28;20204;-40
2021/09/26 09:51:34;;;;;;;7.25;4.13;;;20.80;99.90;;;;;;12518384;28;20040;-35
2021/09/26 09:57:35;;;;;;;5.40;3.65;;;21.10;99.90;;;;;;12514443;28;20056;-36
2021/09/26 10:03:46;;;;;;;6.88;3.97;;;21.40;99.90;;;;;;12517834;28;20098;-35
2021/09/26 10:09:50;;;;;;;5.13;3.85;;;21.50;99.90;;;;;;12519745;28;20102;-36
2021/09/26 10:15:52;;;;;;;7.97;3.80;;;21.60;99.90;;;;;;12517354;28;20088;-36
2021/09/26 10:21:56;;;;;;;6.07;4.05;;;21.80;99.90;;;;;;12517035;28;20130;-36
2021/09/26 10:28:00;;;;;;;8.65;4.20;;;21.90;99.90;;;;;;12517968;28;20084;-40
2021/09/26 10:34:04;;;;;;;8.73;4.30;;;22.30;99.90;;;;;;12517173;28;20605;-42
2021/09/26 10:40:06;;;;;;;7.90;3.92;;;22.40;99.90;;;;;;12518455;28;20106;-36
2021/09/26 10:46:25;;;;;;;8.27;4.00;;;22.60;99.90;;;;;;12518709;28;20778;-37
2021/09/26 10:52:29;;;;;;;6.53;3.90;;;22.60;99.90;;;;;;12515863;28;20541;-36
2021/09/26 10:58:32;;;;;;;5.47;4.03;;;22.80;99.90;;;;;;12517330;28;20057;-38
2021/09/26 11:04:40;;;;;;;7.88;4.47;;;22.90;99.90;;;;;;12517105;28;20453;-40
2021/09/26 11:10:46;;;;;;;6.72;4.22;;;23.20;99.90;;;;;;12516221;28;20533;-37
2021/09/26 11:16:56;;;;;;;8.80;4.50;;;23.30;99.90;;;;;;12517707;28;20601;-40
2021/09/26 11:23:08;;;;;;;7.88;3.92;;;23.50;99.90;;;;;;12514595;28;20094;-36
2021/09/26 11:29:10;;;;;;;8.52;4.35;;;23.70;99.90;;;;;;12514169;28;20099;-36
2021/09/26 11:35:24;;;;;;;6.10;4.15;;;23.60;99.90;;;;;;12514116;28;20810;-36
2021/09/26 11:41:38;;;;;;;8.95;5.00;;;23.70;99.90;;;;;;12515736;28;20045;-36
2021/09/26 11:47:39;;;;;;;6.70;4.27;;;23.80;99.90;;;;;;12513956;28;20057;-41
2021/09/26 11:53:43;;;;;;;8.85;4.93;;;24.10;99.90;;;;;;12512424;28;20045;-36
2021/09/26 11:59:45;;;;;;;11.98;4.72;;;24.10;99.90;;;;;;12513256;28;20049;-36
2021/09/26 12:05:47;;;;;;;7.05;4.50;;;24.30;99.90;;;;;;12511318;28;20571;-36
2021/09/26 12:11:50;;;;;;;8.05;4.93;;;24.20;99.90;;;;;;12512439;28;20521;-36
2021/09/26 12:17:57;;;;;;;7.45;4.70;;;23.60;99.90;;;;;;12508696;28;20119;-36
2021/09/26 12:24:09;;;;;;;7.78;4.53;;;23.50;99.90;;;;;;12511652;28;20053;-41
2021/09/26 12:30:18;;;;;;;7.40;4.80;;;23.30;99.90;;;;;;12513826;28;20410;-41
2021/09/26 12:36:22;;;;;;;9.90;4.70;;;23.40;99.90;;;;;;12512148;28;20135;-36
2021/09/26 12:42:30;;;;;;;7.03;3.88;;;23.60;99.90;;;;;;12515401;28;20135;-36
2021/09/26 12:48:33;;;;;;;8.07;4.53;;;24.10;99.90;;;;;;12518207;28;20056;-37
2021/09/26 12:54:35;;;;;;;;;;;24.30;99.90;;;;;;12520009;28;20094;-40
2021/09/26 13:00:41;;;;;;;8.32;4.53;;;24.50;99.90;;;;;;12521456;28;19925;-40
2021/09/26 13:06:52;;;;;;;7.43;4.55;;;24.70;99.90;;;;;;12518272;28;20049;-41
2021/09/26 13:12:54;;;;;;;8.00;3.88;;;24.60;99.90;;;;;;12521707;28;20393;-40
2021/09/26 13:18:57;;;;;;;7.95;4.68;;;24.70;99.90;;;;;;12520345;28;20052;-36
2021/09/26 13:24:59;;;;;;;7.60;3.78;;;24.70;99.90;;;;;;12523126;28;20111;-41
2021/09/26 13:31:14;;;;;;;6.97;4.18;;;24.90;99.90;;;;;;12520767;28;20781;-40
2021/09/26 13:37:24;;;;;;;;;;;24.80;99.90;;;;;;12522593;28;20052;-42
2021/09/26 13:43:34;;;;;;;6.05;3.80;;;24.80;99.90;;;;;;12516205;28;19929;-38
2021/09/26 13:49:36;;;;;;;10.95;3.95;;;24.70;99.90;;;;;;12517299;28;20045;-41
2021/09/26 13:55:38;;;;;;;8.10;4.10;;;24.50;99.90;;;;;;12513548;28;20080;-39
2021/09/26 14:01:40;;;;;;;6.80;4.00;;;24.40;99.90;;;;;;12518927;28;20454;-37
2021/09/26 14:07:43;;;;;;;9.40;4.25;;;24.20;99.90;;;;;;12520534;28;20045;-36
2021/09/26 14:13:46;;;;;;;9.35;4.38;;;24.10;99.90;;;;;;12516833;28;20098;-37
2021/09/26 14:19:48;;;;;;;6.67;4.07;;;23.80;99.90;;;;;;12514642;28;20056;-41
2021/09/26 14:25:50;;;;;;;5.72;4.18;;;23.70;99.90;;;;;;12517726;28;20049;-37
2021/09/26 14:31:54;;;;;;;7.20;4.60;;;23.50;99.90;;;;;;12519299;28;20072;-41
2021/09/26 14:37:58;;;;;;;9.32;4.82;;;23.60;99.90;;;;;;12515372;28;20100;-36
2021/09/26 14:44:01;;;;;;;7.35;4.90;;;23.70;99.90;;;;;;12522144;28;20044;-41
2021/09/26 14:50:06;;;;;;;6.82;5.22;;;23.80;99.90;;;;;;12513503;28;20041;-37
2021/09/26 14:56:08;;;;;;;9.85;4.88;;;23.80;99.90;;;;;;12516066;28;20049;-36
2021/09/26 15:02:10;;;;;;;9.82;5.07;;;23.60;99.90;;;;;;12511293;28;20053;-41
2021/09/26 15:08:12;;;;;;;5.60;4.72;;;23.40;99.90;;;;;;12516550;28;20045;-36
2021/09/26 15:14:14;;;;;;;7.63;5.20;;;23.10;99.90;;;;;;12516004;28;20470;-41
2021/09/26 15:20:21;;;;;;;10.95;5.20;;;23.00;99.90;;;;;;12511879;28;20593;-36
2021/09/26 15:26:25;;;;;;;9.45;5.05;;;23.00;99.90;;;;;;12511046;28;20463;-36
2021/09/26 15:32:27;;;;;;;9.65;4.82;;;23.20;99.90;;;;;;12514975;28;20209;-41
2021/09/26 15:38:29;;;;;;;7.38;5.15;;;23.40;99.90;;;;;;12513824;28;20048;-41
2021/09/26 15:44:31;;;;;;;8.63;4.97;;;23.40;99.90;;;;;;12513916;28;20057;-36
2021/09/26 15:50:38;;;;;;;7.63;4.50;;;23.20;99.90;;;;;;12510667;28;20048;-36
2021/09/26 15:56:39;;;;;;;5.88;4.38;;;23.00;99.90;;;;;;12512449;28;20094;-37
2021/09/26 16:02:41;;;;;;;8.15;5.10;;;22.70;99.90;;;;;;12512015;28;20049;-37
2021/09/26 16:08:44;;;;;;;7.18;4.55;;;22.50;99.90;;;;;;12508193;28;20509;-38
2021/09/26 16:14:46;;;;;;;6.70;4.13;;;22.30;99.90;;;;;;12507785;28;20082;-41
2021/09/26 16:20:52;;;;;;;6.25;4.03;;;22.20;99.90;;;;;;12510093;28;20115;-36
2021/09/26 16:26:55;;;;;;;14.18;4.50;;;22.00;99.90;;;;;;12511194;28;20056;-38
2021/09/26 16:32:57;;;;;;;7.03;4.40;;;21.80;99.90;;;;;;12513495;28;20060;-42
2021/09/26 16:39:00;;;;;;;9.52;4.72;;;21.70;99.90;;;;;;12508496;28;20053;-41
2021/09/26 16:45:03;;;;;;;8.90;4.80;;;21.50;99.90;;;;;;12511838;28;20654;-41
2021/09/26 16:51:06;;;;;;;;;;;21.40;99.90;;;;;;12510235;28;20053;-41
2021/09/26 16:57:07;;;;;;;7.18;4.75;;;21.20;99.90;;;;;;12509417;28;19933;-39
2021/09/26 17:03:10;;;;;;;7.88;4.70;;;21.10;99.90;;;;;;12510769;28;20053;-41
2021/09/26 17:09:12;;;;;;;6.38;4.53;;;20.90;99.90;;;;;;12505879;28;20083;-41
2021/09/26 17:15:15;;;;;;;7.53;4.60;;;20.80;99.90;;;;;;12508460;28;20120;-42
2021/09/26 17:21:19;;;;;;;7.47;4.50;;;20.70;99.90;;;;;;12510195;28;20564;-40
2021/09/26 17:27:21;;;;;;;8.40;4.13;;;20.70;99.90;;;;;;12509111;28;20136;-36
2021/09/26 17:33:23;;;;;;;6.20;3.78;;;20.60;99.90;;;;;;12519977;28;20399;-36
2021/09/26 17:39:25;;;;;;;7.05;3.63;;;20.70;99.90;;;;;;12521368;28;20045;-36
2021/09/26 17:45:28;;;;;;;6.97;3.67;;;20.70;99.90;;;;;;12514868;28;20045;-37
2021/09/26 17:51:30;;;;;;;10.93;4.60;;;20.80;99.90;;;;;;12520827;28;20053;-42
2021/09/26 17:57:32;;;;;;;7.95;6.18;;;20.80;99.90;;;;;;12525232;28;20292;-40
2021/09/26 18:03:37;;;;;;;10.80;5.95;;;20.70;99.90;;;;;;12527163;28;20134;-36
2021/09/26 18:09:41;;;;;;;13.63;5.28;;;20.50;99.90;;;;;;12523700;28;20160;-36
2021/09/26 18:15:44;;;;;;;9.75;5.93;;;20.40;99.90;;;;;;12521088;28;20045;-36
2021/09/26 18:21:48;;;;;;;7.97;5.80;;;20.30;99.90;;;;;;12522453;28;20049;-40
2021/09/26 18:27:49;;;;;;;9.07;5.55;;;20.10;99.90;;;;;;12520742;28;20057;-40
2021/09/26 18:33:52;;;;;;;10.30;5.28;;;19.90;99.90;;;;;;12524322;28;20110;-35
2021/09/26 18:39:55;;;;;;;11.17;5.17;;;19.70;99.90;;;;;;12522474;28;20838;-36
2021/09/26 18:45:56;;;;;;;10.50;4.97;;;19.60;99.90;;;;;;12518049;28;20291;-39
2021/09/26 18:51:59;;;;;;;9.45;5.55;;;19.50;99.90;;;;;;12507016;28;20053;-39
2021/09/26 18:58:01;;;;;;;9.05;5.10;;;19.40;99.90;;;;;;12520567;28;20041;-36
2021/09/26 19:04:03;;;;;;;8.48;5.53;;;19.40;99.90;;;;;;12522049;28;20098;-42
2021/09/26 19:10:07;;;;;;;10.02;6.10;;;19.20;99.90;;;;;;12516558;28;20107;-42
2021/09/26 19:16:10;;;;;;;13.50;6.05;;;19.00;99.90;;;;;;12519437;28;20971;-36
2021/09/26 19:22:13;;;;;;;10.00;6.73;;;18.90;99.90;;;;;;12519461;28;20077;-35
2021/09/26 19:28:15;;;;;;;9.98;5.93;;;18.90;99.90;;;;;;12517952;28;20517;-36
2021/09/26 19:34:18;;;;;;;8.95;6.03;;;18.70;99.90;;;;;;12517825;28;20457;-36
2021/09/26 19:40:21;;;;;;;12.48;6.78;;;18.60;99.90;;;;;;12517023;28;20071;-36
2021/09/26 19:46:24;;;;;;;11.13;6.60;;;18.60;99.90;;;;;;12514629;28;20439;-36
2021/09/26 19:52:26;;;;;;;9.15;6.25;;;18.50;99.90;;;;;;12517675;28;20037;-36
2021/09/26 19:58:28;;;;;;;10.35;6.55;;;18.50;99.90;;;;;;12517828;28;20124;-40
2021/09/26 20:04:30;;;;;;;11.55;6.20;;;18.50;99.90;;;;;;12513594;28;20773;-40
2021/09/26 20:10:37;;;;;;;10.85;7.03;;;18.50;99.90;;;;;;12516454;28;20076;-36
2021/09/26 20:16:39;;;;;;;11.23;6.18;;;18.60;99.90;;;;;;12515194;28;20048;-35
2021/09/26 20:22:42;;;;;;;12.57;7.30;;;18.70;99.90;;;;;;12515633;28;20075;-39
2021/09/26 20:28:45;;;;;;;16.13;7.55;;;18.60;99.90;;;;;;12515200;28;20091;-36
2021/09/26 20:34:47;;;;;;;12.77;7.93;;;18.70;99.90;;;;;;12516859;28;20110;-40
2021/09/26 20:40:50;;;;;;;15.05;7.10;;;18.70;99.90;;;;;;12515096;28;20049;-40
2021/09/26 20:46:52;;;;;;;12.75;7.25;;;18.60;99.90;;;;;;12516312;28;20666;-35
2021/09/26 20:52:54;;;;;;;13.18;7.32;;;18.60;99.90;;;;;;12516125;28;20053;-41
2021/09/26 20:58:55;;;;;;;15.18;7.43;;;18.70;99.90;;;;;;12517982;28;20057;-36
2021/09/26 21:04:57;;;;;;;13.18;7.85;;;18.60;99.90;;;;;;12519256;28;20049;-36
2021/09/26 21:10:59;;;;;;;17.48;8.68;;;18.50;99.90;;;;;;12524910;28;20391;-39
2021/09/26 21:17:03;;;;;;;11.60;8.38;;;18.60;99.90;;;;;;12524027;28;20170;-40
2021/09/26 21:23:06;;;;;;;11.98;8.55;;;18.60;99.90;;;;;;12522515;28;20076;-36
2021/09/26 21:29:08;;;;;;;13.73;8.75;;;18.60;99.90;;;;;;12523953;28;20151;-40
2021/09/26 21:35:10;;;;;;;13.35;8.73;;;18.50;99.90;;;;;;12523564;28;20176;-35
2021/09/26 21:41:12;;;;;;;13.85;8.73;;;18.50;99.90;;;;;;12519684;28;20049;-41
2021/09/26 21:47:14;;;;;;;11.77;9.35;;;18.50;99.90;;;;;;12525406;28;20053;-35
2021/09/26 21:53:18;;;;;;;13.95;8.90;;;18.50;99.90;;;;;;12522776;28;20522;-41
2021/09/26 21:59:19;;;;;;;12.80;9.10;;;18.50;99.90;;;;;;12522247;28;20103;-35
2021/09/26 22:05:24;;;;;;;17.42;9.15;;;18.40;99.90;;;;;;12519066;28;20052;-40
2021/09/26 22:11:27;;;;;;;14.85;8.98;;;18.30;99.90;;;;;;12521963;28;20055;-40
2021/09/26 22:17:28;;;;;;;12.93;8.33;;;18.40;99.90;;;;;;12521507;28;20118;-37
2021/09/26 22:23:38;;;;;;;11.48;8.98;;;18.40;99.90;;;;;;12519255;28;20139;-36
2021/09/26 22:29:40;;;;;;;13.63;8.98;;;18.40;99.90;;;;;;12522579;28;20045;-41
2021/09/26 22:35:42;;;;;;;12.45;8.85;;;18.40;99.90;;;;;;12520090;28;20708;-36
2021/09/26 22:41:44;;;;;;;11.75;8.40;;;18.40;99.90;;;;;;12521960;28;20045;-36
2021/09/26 22:47:46;;;;;;;14.52;9.25;;;18.40;99.90;;;;;;12515474;28;20053;-40
2021/09/26 22:53:48;;;;;;;11.48;8.57;;;18.40;99.90;;;;;;12519875;28;20057;-40
2021/09/26 22:59:50;;;;;;;12.32;9.07;;;18.40;99.90;;;;;;12522121;28;20467;-36
2021/09/26 23:05:52;;;;;;;12.30;8.35;;;18.30;99.90;;;;;;12518911;28;20446;-37
2021/09/26 23:11:54;;;;;;;13.32;8.80;;;18.40;99.90;;;;;;12522019;28;20055;-36
2021/09/26 23:17:56;;;;;;;13.05;9.18;;;18.30;99.90;;;;;;12520205;28;20091;-39
2021/09/26 23:23:58;;;;;;;10.93;8.93;;;18.30;99.90;;;;;;12519125;28;20411;-35
2021/09/26 23:30:00;;;;;;;15.85;9.43;;;18.30;99.90;;;;;;12517315;28;20049;-40
2021/09/26 23:36:03;;;;;;;13.57;9.05;;;18.20;99.90;;;;;;12518701;28;20452;-40
2021/09/26 23:42:05;;;;;;;10.85;8.02;;;18.20;99.90;;;;;;12519780;28;20441;-40
2021/09/26 23:48:07;;;;;;;12.50;8.48;;;18.20;99.90;;;;;;12522361;28;20049;-40
2021/09/26 23:54:09;;;;;;;11.95;8.45;;;18.20;99.90;;;;;;12515492;28;20485;-36
